sensor_id;sensor_type;location;lat;lon;timestamp;P1;durP1;ratioP1;P2;durP2;ratioP2
64832;SDS011;51290;45.060;38.948;2023-03-05T00:00:09;2.75;;;1.85;;
64832;SDS011;51290;45.060;38.948;2023-03-05T00:02:40;1.65;;;1.38;;
64832;SDS011;51290;45.060;38.948;2023-03-05T00:05:06;1.77;;;1.33;;
64832;SDS011;51290;45.060;38.948;2023-03-05T00:07:33;3.15;;;2.08;;
64832;SDS011;51290;45.060;38.948;2023-03-05T00:10:00;1.45;;;1.30;;
64832;SDS011;51290;45.060;38.948;2023-03-05T00:12:27;2.22;;;1.55;;
64832;SDS011;51290;45.060;38.948;2023-03-05T00:14:54;5.82;;;1.33;;
64832;SDS011;51290;45.060;38.948;2023-03-05T00:17:20;1.85;;;0.93;;
64832;SDS011;51290;45.060;38.948;2023-03-05T00:19:46;1.08;;;0.77;;
64832;SDS011;51290;45.060;38.948;2023-03-05T00:22:12;4.00;;;1.98;;
64832;SDS011;51290;45.060;38.948;2023-03-05T00:24:38;2.10;;;1.48;;
64832;SDS011;51290;45.060;38.948;2023-03-05T00:27:04;1.98;;;1.73;;
64832;SDS011;51290;45.060;38.948;2023-03-05T00:29:30;4.20;;;2.05;;
64832;SDS011;51290;45.060;38.948;2023-03-05T00:31:56;4.95;;;3.08;;
64832;SDS011;51290;45.060;38.948;2023-03-05T00:34:22;6.15;;;3.88;;
64832;SDS011;51290;45.060;38.948;2023-03-05T00:36:50;14.90;;;5.43;;
64832;SDS011;51290;45.060;38.948;2023-03-05T00:39:18;5.68;;;3.85;;
64832;SDS011;51290;45.060;38.948;2023-03-05T00:41:45;5.25;;;3.35;;
64832;SDS011;51290;45.060;38.948;2023-03-05T00:44:11;6.05;;;3.38;;
64832;SDS011;51290;45.060;38.948;2023-03-05T00:46:37;4.07;;;2.50;;
64832;SDS011;51290;45.060;38.948;2023-03-05T00:49:04;5.72;;;3.25;;
64832;SDS011;51290;45.060;38.948;2023-03-05T00:51:31;8.25;;;2.22;;
64832;SDS011;51290;45.060;38.948;2023-03-05T00:53:57;3.70;;;2.42;;
64832;SDS011;51290;45.060;38.948;2023-03-05T00:56:23;1.33;;;1.17;;
64832;SDS011;51290;45.060;38.948;2023-03-05T00:58:49;3.15;;;1.80;;
64832;SDS011;51290;45.060;38.948;2023-03-05T01:01:15;7.60;;;2.15;;
64832;SDS011;51290;45.060;38.948;2023-03-05T01:03:41;5.32;;;2.10;;
64832;SDS011;51290;45.060;38.948;2023-03-05T01:06:08;3.60;;;1.60;;
64832;SDS011;51290;45.060;38.948;2023-03-05T01:08:37;1.08;;;1.08;;
64832;SDS011;51290;45.060;38.948;2023-03-05T01:11:04;2.70;;;1.70;;
64832;SDS011;51290;45.060;38.948;2023-03-05T01:13:31;1.58;;;1.48;;
64832;SDS011;51290;45.060;38.948;2023-03-05T01:15:58;3.30;;;2.00;;
64832;SDS011;51290;45.060;38.948;2023-03-05T01:18:25;2.90;;;2.03;;
64832;SDS011;51290;45.060;38.948;2023-03-05T01:20:51;2.38;;;1.38;;
64832;SDS011;51290;45.060;38.948;2023-03-05T01:23:17;6.13;;;3.03;;
64832;SDS011;51290;45.060;38.948;2023-03-05T01:25:43;1.83;;;1.63;;
64832;SDS011;51290;45.060;38.948;2023-03-05T01:28:09;2.10;;;1.90;;
64832;SDS011;51290;45.060;38.948;2023-03-05T01:30:35;8.82;;;2.15;;
64832;SDS011;51290;45.060;38.948;2023-03-05T01:33:01;1.83;;;1.67;;
64832;SDS011;51290;45.060;38.948;2023-03-05T01:35:28;1.42;;;1.33;;
64832;SDS011;51290;45.060;38.948;2023-03-05T01:37:54;1.98;;;1.33;;
64832;SDS011;51290;45.060;38.948;2023-03-05T01:40:23;1.20;;;1.10;;
64832;SDS011;51290;45.060;38.948;2023-03-05T01:42:55;3.28;;;2.60;;
64832;SDS011;51290;45.060;38.948;2023-03-05T01:45:26;3.38;;;1.38;;
64832;SDS011;51290;45.060;38.948;2023-03-05T01:47:55;2.17;;;1.38;;
64832;SDS011;51290;45.060;38.948;2023-03-05T01:50:22;1.60;;;0.98;;
64832;SDS011;51290;45.060;38.948;2023-03-05T01:52:52;6.20;;;1.85;;
64832;SDS011;51290;45.060;38.948;2023-03-05T01:55:23;2.03;;;1.77;;
64832;SDS011;51290;45.060;38.948;2023-03-05T01:57:53;4.57;;;1.88;;
64832;SDS011;51290;45.060;38.948;2023-03-05T02:00:24;1.85;;;1.42;;
64832;SDS011;51290;45.060;38.948;2023-03-05T02:02:54;2.08;;;1.35;;
64832;SDS011;51290;45.060;38.948;2023-03-05T02:05:28;3.53;;;1.50;;
64832;SDS011;51290;45.060;38.948;2023-03-05T02:07:59;1.30;;;1.20;;
64832;SDS011;51290;45.060;38.948;2023-03-05T02:10:32;8.27;;;2.10;;
64832;SDS011;51290;45.060;38.948;2023-03-05T02:13:07;1.88;;;1.55;;
64832;SDS011;51290;45.060;38.948;2023-03-05T02:15:36;1.85;;;1.60;;
64832;SDS011;51290;45.060;38.948;2023-03-05T02:18:03;4.53;;;2.33;;
64832;SDS011;51290;45.060;38.948;2023-03-05T02:20:32;1.17;;;1.08;;
64832;SDS011;51290;45.060;38.948;2023-03-05T02:23:10;1.55;;;1.30;;
64832;SDS011;51290;45.060;38.948;2023-03-05T02:25:36;2.95;;;1.27;;
64832;SDS011;51290;45.060;38.948;2023-03-05T02:28:05;1.58;;;0.82;;
64832;SDS011;51290;45.060;38.948;2023-03-05T02:30:35;3.20;;;2.28;;
64832;SDS011;51290;45.060;38.948;2023-03-05T02:33:03;6.05;;;1.70;;
64832;SDS011;51290;45.060;38.948;2023-03-05T02:35:30;0.73;;;0.63;;
64832;SDS011;51290;45.060;38.948;2023-03-05T02:37:56;0.98;;;0.90;;
64832;SDS011;51290;45.060;38.948;2023-03-05T02:40:22;3.00;;;1.67;;
64832;SDS011;51290;45.060;38.948;2023-03-05T02:42:48;1.83;;;1.13;;
64832;SDS011;51290;45.060;38.948;2023-03-05T02:45:14;2.33;;;1.83;;
64832;SDS011;51290;45.060;38.948;2023-03-05T02:47:41;3.35;;;1.38;;
64832;SDS011;51290;45.060;38.948;2023-03-05T02:50:07;0.75;;;0.75;;
64832;SDS011;51290;45.060;38.948;2023-03-05T02:52:36;2.20;;;1.65;;
64832;SDS011;51290;45.060;38.948;2023-03-05T02:55:05;1.50;;;1.00;;
64832;SDS011;51290;45.060;38.948;2023-03-05T02:57:31;2.70;;;1.55;;
64832;SDS011;51290;45.060;38.948;2023-03-05T02:59:57;5.90;;;1.48;;
64832;SDS011;51290;45.060;38.948;2023-03-05T03:02:23;2.13;;;1.50;;
64832;SDS011;51290;45.060;38.948;2023-03-05T03:04:49;2.60;;;1.73;;
64832;SDS011;51290;45.060;38.948;2023-03-05T03:07:15;0.77;;;0.77;;
64832;SDS011;51290;45.060;38.948;2023-03-05T03:09:41;1.25;;;1.13;;
64832;SDS011;51290;45.060;38.948;2023-03-05T03:12:08;3.25;;;1.67;;
64832;SDS011;51290;45.060;38.948;2023-03-05T03:14:36;3.45;;;1.35;;
64832;SDS011;51290;45.060;38.948;2023-03-05T03:17:13;1.80;;;1.55;;
64832;SDS011;51290;45.060;38.948;2023-03-05T03:19:40;1.55;;;1.45;;
64832;SDS011;51290;45.060;38.948;2023-03-05T03:22:08;3.53;;;1.63;;
64832;SDS011;51290;45.060;38.948;2023-03-05T03:24:38;2.33;;;1.45;;
64832;SDS011;51290;45.060;38.948;2023-03-05T03:27:05;4.78;;;2.00;;
64832;SDS011;51290;45.060;38.948;2023-03-05T03:29:31;3.58;;;2.15;;
64832;SDS011;51290;45.060;38.948;2023-03-05T03:31:57;2.35;;;1.38;;
64832;SDS011;51290;45.060;38.948;2023-03-05T03:34:24;3.33;;;1.83;;
64832;SDS011;51290;45.060;38.948;2023-03-05T03:36:50;2.60;;;1.70;;
64832;SDS011;51290;45.060;38.948;2023-03-05T03:39:20;5.18;;;2.80;;
64832;SDS011;51290;45.060;38.948;2023-03-05T03:41:47;2.92;;;2.35;;
64832;SDS011;51290;45.060;38.948;2023-03-05T03:44:15;2.83;;;2.20;;
64832;SDS011;51290;45.060;38.948;2023-03-05T03:46:42;4.93;;;1.90;;
64832;SDS011;51290;45.060;38.948;2023-03-05T03:49:14;4.82;;;2.88;;
64832;SDS011;51290;45.060;38.948;2023-03-05T03:51:45;6.82;;;3.03;;
64832;SDS011;51290;45.060;38.948;2023-03-05T03:54:12;4.05;;;2.17;;
64832;SDS011;51290;45.060;38.948;2023-03-05T03:56:39;5.80;;;2.00;;
64832;SDS011;51290;45.060;38.948;2023-03-05T03:59:05;8.30;;;1.98;;
64832;SDS011;51290;45.060;38.948;2023-03-05T04:01:31;5.63;;;3.58;;
64832;SDS011;51290;45.060;38.948;2023-03-05T04:03:57;5.90;;;2.92;;
64832;SDS011;51290;45.060;38.948;2023-03-05T04:06:23;2.25;;;1.88;;
64832;SDS011;51290;45.060;38.948;2023-03-05T04:08:49;6.75;;;2.97;;
64832;SDS011;51290;45.060;38.948;2023-03-05T04:11:15;4.70;;;2.83;;
64832;SDS011;51290;45.060;38.948;2023-03-05T04:13:44;5.28;;;3.92;;
64832;SDS011;51290;45.060;38.948;2023-03-05T04:16:13;7.82;;;2.88;;
64832;SDS011;51290;45.060;38.948;2023-03-05T04:18:40;5.68;;;3.22;;
64832;SDS011;51290;45.060;38.948;2023-03-05T04:21:06;4.97;;;2.97;;
64832;SDS011;51290;45.060;38.948;2023-03-05T04:23:32;6.03;;;3.13;;
64832;SDS011;51290;45.060;38.948;2023-03-05T04:25:59;3.55;;;2.60;;
64832;SDS011;51290;45.060;38.948;2023-03-05T04:28:25;9.55;;;3.47;;
64832;SDS011;51290;45.060;38.948;2023-03-05T04:30:51;3.58;;;2.25;;
64832;SDS011;51290;45.060;38.948;2023-03-05T04:33:17;3.85;;;2.55;;
64832;SDS011;51290;45.060;38.948;2023-03-05T04:35:43;11.55;;;2.95;;
64832;SDS011;51290;45.060;38.948;2023-03-05T04:38:09;5.65;;;3.28;;
64832;SDS011;51290;45.060;38.948;2023-03-05T04:40:36;6.80;;;3.50;;
64832;SDS011;51290;45.060;38.948;2023-03-05T04:43:02;8.10;;;4.32;;
64832;SDS011;51290;45.060;38.948;2023-03-05T04:45:29;6.32;;;3.55;;
64832;SDS011;51290;45.060;38.948;2023-03-05T04:47:55;10.18;;;3.13;;
64832;SDS011;51290;45.060;38.948;2023-03-05T04:50:21;17.90;;;4.32;;
64832;SDS011;51290;45.060;38.948;2023-03-05T04:52:47;7.05;;;3.33;;
64832;SDS011;51290;45.060;38.948;2023-03-05T04:55:13;8.80;;;4.10;;
64832;SDS011;51290;45.060;38.948;2023-03-05T04:57:41;6.30;;;3.58;;
64832;SDS011;51290;45.060;38.948;2023-03-05T05:00:08;5.75;;;3.58;;
64832;SDS011;51290;45.060;38.948;2023-03-05T05:02:39;7.60;;;3.85;;
64832;SDS011;51290;45.060;38.948;2023-03-05T05:05:09;5.53;;;3.38;;
64832;SDS011;51290;45.060;38.948;2023-03-05T05:07:39;3.63;;;2.42;;
64832;SDS011;51290;45.060;38.948;2023-03-05T05:10:05;9.23;;;3.97;;
64832;SDS011;51290;45.060;38.948;2023-03-05T05:12:32;6.63;;;3.75;;
64832;SDS011;51290;45.060;38.948;2023-03-05T05:14:59;11.13;;;4.20;;
64832;SDS011;51290;45.060;38.948;2023-03-05T05:17:25;6.07;;;3.72;;
64832;SDS011;51290;45.060;38.948;2023-03-05T05:19:55;10.73;;;4.20;;
64832;SDS011;51290;45.060;38.948;2023-03-05T05:22:22;6.18;;;3.58;;
64832;SDS011;51290;45.060;38.948;2023-03-05T05:24:48;8.20;;;4.78;;
64832;SDS011;51290;45.060;38.948;2023-03-05T05:27:14;5.13;;;3.25;;
64832;SDS011;51290;45.060;38.948;2023-03-05T05:29:40;5.38;;;3.03;;
64832;SDS011;51290;45.060;38.948;2023-03-05T05:32:06;7.38;;;3.45;;
64832;SDS011;51290;45.060;38.948;2023-03-05T05:34:32;5.28;;;3.10;;
64832;SDS011;51290;45.060;38.948;2023-03-05T05:36:58;8.02;;;5.00;;
64832;SDS011;51290;45.060;38.948;2023-03-05T05:39:24;5.18;;;3.28;;
64832;SDS011;51290;45.060;38.948;2023-03-05T05:41:50;8.00;;;4.15;;
64832;SDS011;51290;45.060;38.948;2023-03-05T05:44:17;6.80;;;3.25;;
64832;SDS011;51290;45.060;38.948;2023-03-05T05:46:43;6.40;;;3.20;;
64832;SDS011;51290;45.060;38.948;2023-03-05T05:49:09;11.35;;;4.15;;
64832;SDS011;51290;45.060;38.948;2023-03-05T05:51:35;5.15;;;3.53;;
64832;SDS011;51290;45.060;38.948;2023-03-05T05:54:01;8.75;;;3.97;;
64832;SDS011;51290;45.060;38.948;2023-03-05T05:56:27;12.27;;;4.28;;
64832;SDS011;51290;45.060;38.948;2023-03-05T05:58:53;6.40;;;3.42;;
64832;SDS011;51290;45.060;38.948;2023-03-05T06:01:23;6.70;;;3.15;;
64832;SDS011;51290;45.060;38.948;2023-03-05T06:03:52;8.13;;;4.32;;
64832;SDS011;51290;45.060;38.948;2023-03-05T06:06:19;4.65;;;2.95;;
64832;SDS011;51290;45.060;38.948;2023-03-05T06:08:47;14.43;;;5.03;;
64832;SDS011;51290;45.060;38.948;2023-03-05T06:11:13;6.43;;;2.83;;
64832;SDS011;51290;45.060;38.948;2023-03-05T06:13:39;7.43;;;4.00;;
64832;SDS011;51290;45.060;38.948;2023-03-05T06:16:06;4.53;;;2.97;;
64832;SDS011;51290;45.060;38.948;2023-03-05T06:18:35;8.63;;;4.35;;
64832;SDS011;51290;45.060;38.948;2023-03-05T06:21:02;19.45;;;3.20;;
64832;SDS011;51290;45.060;38.948;2023-03-05T06:23:30;6.82;;;4.05;;
64832;SDS011;51290;45.060;38.948;2023-03-05T06:26:01;8.48;;;3.47;;
64832;SDS011;51290;45.060;38.948;2023-03-05T06:28:28;7.00;;;3.55;;
64832;SDS011;51290;45.060;38.948;2023-03-05T06:31:02;11.98;;;3.78;;
64832;SDS011;51290;45.060;38.948;2023-03-05T06:33:29;6.45;;;3.70;;
64832;SDS011;51290;45.060;38.948;2023-03-05T06:35:56;13.85;;;4.50;;
64832;SDS011;51290;45.060;38.948;2023-03-05T06:38:22;7.53;;;3.67;;
64832;SDS011;51290;45.060;38.948;2023-03-05T06:40:49;8.90;;;4.25;;
64832;SDS011;51290;45.060;38.948;2023-03-05T06:43:15;7.82;;;4.28;;
64832;SDS011;51290;45.060;38.948;2023-03-05T06:45:41;9.88;;;4.90;;
64832;SDS011;51290;45.060;38.948;2023-03-05T06:48:07;6.35;;;4.22;;
64832;SDS011;51290;45.060;38.948;2023-03-05T06:50:34;7.78;;;4.03;;
64832;SDS011;51290;45.060;38.948;2023-03-05T06:53:00;6.97;;;3.45;;
64832;SDS011;51290;45.060;38.948;2023-03-05T06:55:27;7.55;;;4.68;;
64832;SDS011;51290;45.060;38.948;2023-03-05T06:57:53;6.85;;;3.50;;
64832;SDS011;51290;45.060;38.948;2023-03-05T07:00:19;8.90;;;4.93;;
64832;SDS011;51290;45.060;38.948;2023-03-05T07:02:46;5.85;;;3.08;;
64832;SDS011;51290;45.060;38.948;2023-03-05T07:05:12;4.53;;;3.08;;
64832;SDS011;51290;45.060;38.948;2023-03-05T07:07:38;3.75;;;2.40;;
64832;SDS011;51290;45.060;38.948;2023-03-05T07:10:04;4.88;;;3.03;;
64832;SDS011;51290;45.060;38.948;2023-03-05T07:12:32;5.70;;;3.40;;
64832;SDS011;51290;45.060;38.948;2023-03-05T07:14:58;4.43;;;3.25;;
64832;SDS011;51290;45.060;38.948;2023-03-05T07:17:25;4.78;;;2.58;;
64832;SDS011;51290;45.060;38.948;2023-03-05T07:19:52;3.47;;;2.20;;
64832;SDS011;51290;45.060;38.948;2023-03-05T07:22:18;4.68;;;2.83;;
64832;SDS011;51290;45.060;38.948;2023-03-05T07:24:44;5.68;;;2.80;;
64832;SDS011;51290;45.060;38.948;2023-03-05T07:27:10;3.53;;;2.58;;
64832;SDS011;51290;45.060;38.948;2023-03-05T07:29:36;3.55;;;2.60;;
64832;SDS011;51290;45.060;38.948;2023-03-05T07:32:02;7.00;;;3.05;;
64832;SDS011;51290;45.060;38.948;2023-03-05T07:34:28;4.35;;;2.75;;
64832;SDS011;51290;45.060;38.948;2023-03-05T07:36:54;4.35;;;2.90;;
64832;SDS011;51290;45.060;38.948;2023-03-05T07:39:20;2.78;;;1.85;;
64832;SDS011;51290;45.060;38.948;2023-03-05T07:41:46;7.22;;;3.05;;
64832;SDS011;51290;45.060;38.948;2023-03-05T07:44:14;5.35;;;2.75;;
64832;SDS011;51290;45.060;38.948;2023-03-05T07:46:41;2.00;;;1.58;;
64832;SDS011;51290;45.060;38.948;2023-03-05T07:49:08;3.92;;;2.33;;
64832;SDS011;51290;45.060;38.948;2023-03-05T07:51:34;2.97;;;2.08;;
64832;SDS011;51290;45.060;38.948;2023-03-05T07:54:00;3.78;;;1.52;;
64832;SDS011;51290;45.060;38.948;2023-03-05T07:56:33;8.98;;;2.67;;
64832;SDS011;51290;45.060;38.948;2023-03-05T07:59:00;6.95;;;3.50;;
64832;SDS011;51290;45.060;38.948;2023-03-05T08:01:29;4.68;;;2.90;;
64832;SDS011;51290;45.060;38.948;2023-03-05T08:03:56;5.13;;;2.75;;
64832;SDS011;51290;45.060;38.948;2023-03-05T08:06:22;4.80;;;2.53;;
64832;SDS011;51290;45.060;38.948;2023-03-05T08:08:48;7.43;;;2.80;;
64832;SDS011;51290;45.060;38.948;2023-03-05T08:11:14;3.40;;;2.10;;
64832;SDS011;51290;45.060;38.948;2023-03-05T08:13:42;3.97;;;2.67;;
64832;SDS011;51290;45.060;38.948;2023-03-05T08:16:15;7.32;;;3.40;;
64832;SDS011;51290;45.060;38.948;2023-03-05T08:18:43;2.45;;;2.22;;
64832;SDS011;51290;45.060;38.948;2023-03-05T08:21:17;3.83;;;1.83;;
64832;SDS011;51290;45.060;38.948;2023-03-05T08:23:45;10.43;;;3.87;;
64832;SDS011;51290;45.060;38.948;2023-03-05T08:26:20;6.25;;;3.45;;
64832;SDS011;51290;45.060;38.948;2023-03-05T08:28:48;5.07;;;2.88;;
64832;SDS011;51290;45.060;38.948;2023-03-05T08:31:15;7.13;;;3.45;;
64832;SDS011;51290;45.060;38.948;2023-03-05T08:33:42;6.18;;;3.25;;
64832;SDS011;51290;45.060;38.948;2023-03-05T08:36:08;5.72;;;2.88;;
64832;SDS011;51290;45.060;38.948;2023-03-05T08:38:34;3.55;;;2.10;;
64832;SDS011;51290;45.060;38.948;2023-03-05T08:41:09;3.42;;;2.22;;
64832;SDS011;51290;45.060;38.948;2023-03-05T08:43:35;4.68;;;2.40;;
64832;SDS011;51290;45.060;38.948;2023-03-05T08:46:01;3.22;;;2.28;;
64832;SDS011;51290;45.060;38.948;2023-03-05T08:48:28;4.28;;;2.83;;
64832;SDS011;51290;45.060;38.948;2023-03-05T08:50:56;6.05;;;2.70;;
64832;SDS011;51290;45.060;38.948;2023-03-05T08:53:22;8.27;;;2.17;;
64832;SDS011;51290;45.060;38.948;2023-03-05T08:55:55;1.20;;;1.20;;
64832;SDS011;51290;45.060;38.948;2023-03-05T08:58:22;3.63;;;2.28;;
64832;SDS011;51290;45.060;38.948;2023-03-05T09:00:49;3.33;;;2.22;;
64832;SDS011;51290;45.060;38.948;2023-03-05T09:03:15;2.60;;;1.90;;
64832;SDS011;51290;45.060;38.948;2023-03-05T09:05:41;2.20;;;1.77;;
64832;SDS011;51290;45.060;38.948;2023-03-05T09:08:07;4.28;;;1.98;;
64832;SDS011;51290;45.060;38.948;2023-03-05T09:10:33;1.70;;;1.58;;
64832;SDS011;51290;45.060;38.948;2023-03-05T09:12:59;3.25;;;1.58;;
64832;SDS011;51290;45.060;38.948;2023-03-05T09:15:25;2.78;;;1.88;;
64832;SDS011;51290;45.060;38.948;2023-03-05T09:17:51;4.95;;;2.10;;
64832;SDS011;51290;45.060;38.948;2023-03-05T09:20:17;1.95;;;1.77;;
64832;SDS011;51290;45.060;38.948;2023-03-05T09:22:48;2.53;;;1.40;;
64832;SDS011;51290;45.060;38.948;2023-03-05T09:25:14;4.35;;;2.28;;
64832;SDS011;51290;45.060;38.948;2023-03-05T09:27:40;5.07;;;1.50;;
64832;SDS011;51290;45.060;38.948;2023-03-05T09:30:08;2.35;;;1.77;;
64832;SDS011;51290;45.060;38.948;2023-03-05T09:32:36;2.58;;;1.98;;
64832;SDS011;51290;45.060;38.948;2023-03-05T09:35:02;2.17;;;1.90;;
64832;SDS011;51290;45.060;38.948;2023-03-05T09:37:28;6.00;;;2.28;;
64832;SDS011;51290;45.060;38.948;2023-03-05T09:39:54;2.67;;;1.73;;
64832;SDS011;51290;45.060;38.948;2023-03-05T09:42:28;3.17;;;1.75;;
64832;SDS011;51290;45.060;38.948;2023-03-05T09:44:59;1.55;;;1.42;;
64832;SDS011;51290;45.060;38.948;2023-03-05T09:47:45;1.13;;;0.90;;
64832;SDS011;51290;45.060;38.948;2023-03-05T09:52:56;2.28;;;1.10;;
64832;SDS011;51290;45.060;38.948;2023-03-05T09:55:52;1.77;;;1.50;;
64832;SDS011;51290;45.060;38.948;2023-03-05T10:00:59;1.55;;;1.42;;
64832;SDS011;51290;45.060;38.948;2023-03-05T10:09:11;10.73;;;1.55;;
64832;SDS011;51290;45.060;38.948;2023-03-05T10:11:44;2.20;;;1.55;;
64832;SDS011;51290;45.060;38.948;2023-03-05T10:16:59;2.70;;;2.03;;
64832;SDS011;51290;45.060;38.948;2023-03-05T10:27:18;1.73;;;1.63;;
64832;SDS011;51290;45.060;38.948;2023-03-05T10:37:45;3.78;;;2.80;;
64832;SDS011;51290;45.060;38.948;2023-03-05T10:40:52;3.33;;;2.00;;
64832;SDS011;51290;45.060;38.948;2023-03-05T10:43:27;2.67;;;1.65;;
64832;SDS011;51290;45.060;38.948;2023-03-05T10:46:02;3.28;;;1.73;;
64832;SDS011;51290;45.060;38.948;2023-03-05T10:51:31;2.13;;;1.75;;
64832;SDS011;51290;45.060;38.948;2023-03-05T10:54:03;2.05;;;1.77;;
64832;SDS011;51290;45.060;38.948;2023-03-05T10:56:45;4.35;;;1.90;;
64832;SDS011;51290;45.060;38.948;2023-03-05T10:59:10;2.72;;;2.17;;
64832;SDS011;51290;45.060;38.948;2023-03-05T11:01:36;3.60;;;2.03;;
64832;SDS011;51290;45.060;38.948;2023-03-05T11:04:03;2.42;;;2.03;;
64832;SDS011;51290;45.060;38.948;2023-03-05T11:06:49;3.50;;;1.83;;
64832;SDS011;51290;45.060;38.948;2023-03-05T11:14:31;2.53;;;1.73;;
64832;SDS011;51290;45.060;38.948;2023-03-05T11:17:00;4.32;;;1.95;;
64832;SDS011;51290;45.060;38.948;2023-03-05T11:19:28;4.20;;;1.98;;
64832;SDS011;51290;45.060;38.948;2023-03-05T11:22:04;3.55;;;2.17;;
64832;SDS011;51290;45.060;38.948;2023-03-05T11:24:32;2.97;;;1.65;;
64832;SDS011;51290;45.060;38.948;2023-03-05T11:26:58;3.42;;;2.30;;
64832;SDS011;51290;45.060;38.948;2023-03-05T11:29:29;4.38;;;2.53;;
64832;SDS011;51290;45.060;38.948;2023-03-05T11:32:16;4.55;;;2.00;;
64832;SDS011;51290;45.060;38.948;2023-03-05T11:34:46;3.92;;;2.30;;
64832;SDS011;51290;45.060;38.948;2023-03-05T11:37:23;1.48;;;1.20;;
64832;SDS011;51290;45.060;38.948;2023-03-05T11:40:33;5.20;;;2.60;;
64832;SDS011;51290;45.060;38.948;2023-03-05T11:42:43;2.97;;;2.15;;
64832;SDS011;51290;45.060;38.948;2023-03-05T11:45:16;2.63;;;2.08;;
64832;SDS011;51290;45.060;38.948;2023-03-05T11:47:53;8.18;;;2.15;;
64832;SDS011;51290;45.060;38.948;2023-03-05T11:50:31;6.55;;;2.65;;
64832;SDS011;51290;45.060;38.948;2023-03-05T12:00:55;5.10;;;1.75;;
64832;SDS011;51290;45.060;38.948;2023-03-05T12:03:28;11.70;;;3.30;;
64832;SDS011;51290;45.060;38.948;2023-03-05T12:08:32;7.85;;;3.72;;
64832;SDS011;51290;45.060;38.948;2023-03-05T12:11:05;2.85;;;2.40;;
64832;SDS011;51290;45.060;38.948;2023-03-05T12:13:42;3.85;;;2.75;;
64832;SDS011;51290;45.060;38.948;2023-03-05T12:16:21;4.78;;;2.63;;
64832;SDS011;51290;45.060;38.948;2023-03-05T12:21:44;5.47;;;2.60;;
64832;SDS011;51290;45.060;38.948;2023-03-05T12:29:27;6.53;;;3.15;;
64832;SDS011;51290;45.060;38.948;2023-03-05T12:31:56;5.13;;;2.67;;
64832;SDS011;51290;45.060;38.948;2023-03-05T12:47:34;3.83;;;2.95;;
64832;SDS011;51290;45.060;38.948;2023-03-05T12:50:01;3.97;;;2.00;;
64832;SDS011;51290;45.060;38.948;2023-03-05T12:52:31;4.07;;;2.72;;
64832;SDS011;51290;45.060;38.948;2023-03-05T12:55:21;8.98;;;2.78;;
64832;SDS011;51290;45.060;38.948;2023-03-05T12:57:53;4.80;;;3.15;;
64832;SDS011;51290;45.060;38.948;2023-03-05T13:03:17;5.00;;;3.05;;
64832;SDS011;51290;45.060;38.948;2023-03-05T13:05:52;2.05;;;1.90;;
64832;SDS011;51290;45.060;38.948;2023-03-05T13:10:51;4.72;;;2.55;;
64832;SDS011;51290;45.060;38.948;2023-03-05T13:13:30;3.40;;;1.75;;
64832;SDS011;51290;45.060;38.948;2023-03-05T13:16:00;5.32;;;2.92;;
64832;SDS011;51290;45.060;38.948;2023-03-05T13:18:27;4.72;;;2.20;;
64832;SDS011;51290;45.060;38.948;2023-03-05T13:21:01;6.00;;;2.55;;
64832;SDS011;51290;45.060;38.948;2023-03-05T13:23:29;4.78;;;2.70;;
64832;SDS011;51290;45.060;38.948;2023-03-05T13:25:58;3.50;;;1.92;;
64832;SDS011;51290;45.060;38.948;2023-03-05T13:28:24;3.10;;;2.53;;
64832;SDS011;51290;45.060;38.948;2023-03-05T13:33:32;2.90;;;1.88;;
64832;SDS011;51290;45.060;38.948;2023-03-05T13:36:00;3.53;;;2.20;;
64832;SDS011;51290;45.060;38.948;2023-03-05T13:38:38;7.88;;;2.70;;
64832;SDS011;51290;45.060;38.948;2023-03-05T13:43:46;5.32;;;2.70;;
64832;SDS011;51290;45.060;38.948;2023-03-05T13:46:13;6.60;;;3.45;;
64832;SDS011;51290;45.060;38.948;2023-03-05T13:48:48;4.35;;;2.90;;
64832;SDS011;51290;45.060;38.948;2023-03-05T13:51:13;6.40;;;2.75;;
64832;SDS011;51290;45.060;38.948;2023-03-05T13:53:40;3.47;;;2.25;;
64832;SDS011;51290;45.060;38.948;2023-03-05T13:56:07;4.32;;;2.63;;
64832;SDS011;51290;45.060;38.948;2023-03-05T14:01:23;4.07;;;2.38;;
64832;SDS011;51290;45.060;38.948;2023-03-05T14:06:41;5.45;;;2.47;;
64832;SDS011;51290;45.060;38.948;2023-03-05T14:14:30;3.30;;;2.40;;
64832;SDS011;51290;45.060;38.948;2023-03-05T14:20:16;6.32;;;3.10;;
64832;SDS011;51290;45.060;38.948;2023-03-05T14:22:48;6.68;;;3.13;;
64832;SDS011;51290;45.060;38.948;2023-03-05T14:25:25;2.47;;;1.90;;
64832;SDS011;51290;45.060;38.948;2023-03-05T14:30:45;7.60;;;2.60;;
64832;SDS011;51290;45.060;38.948;2023-03-05T14:33:23;5.10;;;3.05;;
64832;SDS011;51290;45.060;38.948;2023-03-05T14:35:51;5.27;;;2.67;;
64832;SDS011;51290;45.060;38.948;2023-03-05T14:38:23;3.72;;;2.42;;
64832;SDS011;51290;45.060;38.948;2023-03-05T14:40:52;4.35;;;2.42;;
64832;SDS011;51290;45.060;38.948;2023-03-05T14:43:18;4.22;;;2.80;;
64832;SDS011;51290;45.060;38.948;2023-03-05T14:45:44;4.40;;;2.65;;
64832;SDS011;51290;45.060;38.948;2023-03-05T14:48:15;11.25;;;3.00;;
64832;SDS011;51290;45.060;38.948;2023-03-05T14:50:52;4.50;;;2.70;;
64832;SDS011;51290;45.060;38.948;2023-03-05T14:53:21;5.72;;;2.75;;
64832;SDS011;51290;45.060;38.948;2023-03-05T14:55:51;9.00;;;2.95;;
64832;SDS011;51290;45.060;38.948;2023-03-05T14:58:23;7.45;;;3.40;;
64832;SDS011;51290;45.060;38.948;2023-03-05T15:00:59;9.27;;;2.70;;
64832;SDS011;51290;45.060;38.948;2023-03-05T15:03:25;6.18;;;2.78;;
64832;SDS011;51290;45.060;38.948;2023-03-05T15:05:53;2.75;;;1.85;;
64832;SDS011;51290;45.060;38.948;2023-03-05T15:08:21;2.80;;;2.10;;
64832;SDS011;51290;45.060;38.948;2023-03-05T15:10:50;5.38;;;2.30;;
64832;SDS011;51290;45.060;38.948;2023-03-05T15:13:16;2.55;;;2.00;;
64832;SDS011;51290;45.060;38.948;2023-03-05T15:15:43;3.65;;;2.40;;
64832;SDS011;51290;45.060;38.948;2023-03-05T15:18:11;5.05;;;2.65;;
64832;SDS011;51290;45.060;38.948;2023-03-05T15:20:38;5.28;;;2.88;;
64832;SDS011;51290;45.060;38.948;2023-03-05T15:23:05;4.35;;;2.50;;
64832;SDS011;51290;45.060;38.948;2023-03-05T15:25:31;10.43;;;2.53;;
64832;SDS011;51290;45.060;38.948;2023-03-05T15:27:57;6.43;;;3.33;;
64832;SDS011;51290;45.060;38.948;2023-03-05T15:30:25;6.80;;;2.85;;
64832;SDS011;51290;45.060;38.948;2023-03-05T15:32:53;3.42;;;2.50;;
64832;SDS011;51290;45.060;38.948;2023-03-05T15:35:21;4.75;;;2.70;;
64832;SDS011;51290;45.060;38.948;2023-03-05T15:37:48;4.18;;;2.80;;
64832;SDS011;51290;45.060;38.948;2023-03-05T15:40:14;6.47;;;2.80;;
64832;SDS011;51290;45.060;38.948;2023-03-05T15:42:40;6.47;;;3.30;;
64832;SDS011;51290;45.060;38.948;2023-03-05T15:45:06;4.20;;;2.55;;
64832;SDS011;51290;45.060;38.948;2023-03-05T15:47:32;5.75;;;2.75;;
64832;SDS011;51290;45.060;38.948;2023-03-05T15:49:58;4.38;;;2.33;;
64832;SDS011;51290;45.060;38.948;2023-03-05T15:52:24;5.65;;;3.28;;
64832;SDS011;51290;45.060;38.948;2023-03-05T15:54:51;4.72;;;2.38;;
64832;SDS011;51290;45.060;38.948;2023-03-05T15:57:17;8.50;;;2.88;;
64832;SDS011;51290;45.060;38.948;2023-03-05T15:59:47;6.43;;;2.67;;
64832;SDS011;51290;45.060;38.948;2023-03-05T16:02:13;4.90;;;2.72;;
64832;SDS011;51290;45.060;38.948;2023-03-05T16:04:39;2.22;;;1.45;;
64832;SDS011;51290;45.060;38.948;2023-03-05T16:07:06;4.75;;;2.95;;
64832;SDS011;51290;45.060;38.948;2023-03-05T16:09:34;6.65;;;3.17;;
64832;SDS011;51290;45.060;38.948;2023-03-05T16:12:03;7.18;;;2.75;;
64832;SDS011;51290;45.060;38.948;2023-03-05T16:14:42;5.40;;;3.03;;
64832;SDS011;51290;45.060;38.948;2023-03-05T16:17:09;4.18;;;2.88;;